createdAt,value
2023-05-20T00:02:39.911Z,102357.84
2023-05-20T00:07:44.167Z,102358.00
2023-05-20T00:12:48.012Z,102350.97
2023-05-20T00:17:50.841Z,102363.44
2023-05-20T00:22:54.946Z,102368.91
2023-05-20T00:27:57.815Z,102363.41
2023-05-20T00:33:00.746Z,102364.84
2023-05-20T00:38:05.814Z,102369.41
2023-05-20T00:43:08.590Z,102362.91
2023-05-20T00:48:11.637Z,102358.09
2023-05-20T00:53:18.192Z,102358.00
2023-05-20T00:58:21.053Z,102351.56
2023-05-20T01:03:24.321Z,102353.63
2023-05-20T01:08:29.109Z,102357.84
2023-05-20T01:13:46.970Z,102347.19
2023-05-20T01:18:50.712Z,102351.25
2023-05-20T01:23:54.936Z,102349.44
2023-05-20T01:28:57.927Z,102350.03
2023-05-20T01:34:01.663Z,102343.78
2023-05-20T01:39:07.717Z,102344.31
2023-05-20T01:44:10.938Z,102341.84
2023-05-20T01:49:13.706Z,102342.50
2023-05-20T01:54:17.816Z,102349.50
2023-05-20T01:59:20.604Z,102354.06
2023-05-20T02:04:23.915Z,102352.22
2023-05-20T02:09:28.050Z,102337.97
2023-05-20T02:14:30.929Z,102345.47
2023-05-20T02:19:33.721Z,102337.06
2023-05-20T02:24:37.873Z,102340.41
2023-05-20T02:29:40.763Z,102335.59
2023-05-20T02:34:43.534Z,102336.00
2023-05-20T02:39:47.725Z,102318.59
2023-05-20T02:44:51.133Z,102316.00
2023-05-20T02:49:54.212Z,102313.31
2023-05-20T02:54:58.867Z,102314.34
2023-05-20T03:00:01.798Z,102324.16
2023-05-20T03:05:05.401Z,102324.59
2023-05-20T03:10:10.785Z,102342.25
2023-05-20T03:15:17.024Z,102335.13
2023-05-20T03:20:21.217Z,102334.09
2023-05-20T03:25:26.176Z,102335.63
2023-05-20T03:30:29.641Z,102337.84
2023-05-20T03:35:33.553Z,102328.47
2023-05-20T03:40:38.051Z,102327.69
2023-05-20T03:45:41.796Z,102328.88
2023-05-20T03:50:44.673Z,102322.78
2023-05-20T03:55:48.883Z,102328.22
2023-05-20T04:00:52.278Z,102323.28
2023-05-20T04:05:55.614Z,102334.81
2023-05-20T04:11:00.314Z,102330.03
2023-05-20T04:16:05.370Z,102331.06
2023-05-20T04:21:08.897Z,102342.41
2023-05-20T04:26:13.151Z,102344.16
2023-05-20T04:31:16.237Z,102338.59
2023-05-20T04:36:19.550Z,102337.69
2023-05-20T04:41:27.403Z,102331.25
2023-05-20T04:46:31.686Z,102333.38
2023-05-20T04:51:35.459Z,102327.28
2023-05-20T04:56:40.386Z,102329.28
2023-05-20T05:01:43.706Z,102333.63
2023-05-20T05:06:48.910Z,102329.41
2023-05-20T05:11:53.182Z,102323.09
2023-05-20T05:16:56.157Z,102332.91
2023-05-20T05:21:59.143Z,102331.53
2023-05-20T05:27:03.521Z,102334.81
2023-05-20T05:32:07.055Z,102320.72
2023-05-20T05:37:10.385Z,102330.06
2023-05-20T05:42:15.188Z,102327.78
2023-05-20T05:47:18.158Z,102326.59
2023-05-20T05:52:24.057Z,102330.59
2023-05-20T05:57:28.478Z,102326.06
2023-05-20T06:02:36.039Z,102325.56
2023-05-20T06:07:39.161Z,102320.53
2023-05-20T06:12:43.608Z,102319.34
2023-05-20T06:17:46.716Z,102311.59
2023-05-20T06:22:51.338Z,102314.81
2023-05-20T06:27:56.975Z,102312.59
2023-05-20T06:33:00.842Z,102304.63
2023-05-20T06:38:04.058Z,102301.78
2023-05-20T06:43:08.475Z,102298.13
2023-05-20T06:48:40.627Z,102288.31
2023-05-20T06:53:44.138Z,102285.69
2023-05-20T06:58:48.575Z,102283.00
2023-05-20T07:03:52.176Z,102271.47
2023-05-20T07:08:55.337Z,102266.03
2023-05-20T07:13:59.787Z,102262.28
2023-05-20T07:19:06.623Z,102256.50
2023-05-20T07:24:10.427Z,102280.28
2023-05-20T07:29:15.151Z,102280.50
2023-05-20T07:34:18.136Z,102265.44
2023-05-20T07:39:21.816Z,102278.31
2023-05-20T07:44:26.655Z,102258.91
2023-05-20T07:49:30.322Z,102262.31
2023-05-20T07:54:33.359Z,102259.78
2023-05-20T07:59:37.651Z,102251.88
2023-05-20T08:04:41.207Z,102263.75
2023-05-20T08:09:44.189Z,102259.13
2023-05-20T08:14:48.619Z,102260.22
2023-05-20T08:19:51.554Z,102251.06
2023-05-20T08:24:54.610Z,102246.31
2023-05-20T08:30:00.590Z,102245.88
2023-05-20T08:35:04.439Z,102247.75
2023-05-20T08:40:09.823Z,102243.34
2023-05-20T08:45:18.510Z,102228.75
2023-05-20T08:50:22.229Z,102228.69
2023-05-20T08:55:27.108Z,102224.97
2023-05-20T09:00:32.138Z,102226.38
2023-05-20T09:05:36.014Z,102231.53
2023-05-20T09:10:40.037Z,102235.28
2023-05-20T09:15:44.198Z,102225.97
2023-05-20T09:20:48.707Z,102220.53
2023-05-20T09:25:52.341Z,102214.41
2023-05-20T09:30:59.756Z,102211.13
2023-05-20T09:36:05.522Z,102213.84
2023-05-20T09:41:09.592Z,102211.56
2023-05-20T09:46:14.517Z,102203.81
2023-05-20T09:51:19.380Z,102195.97
2023-05-20T09:56:23.820Z,102194.13
2023-05-20T10:01:28.111Z,102196.78
2023-05-20T10:06:46.649Z,102197.50
2023-05-20T10:11:58.628Z,102183.66
2023-05-20T10:17:12.112Z,102185.38
2023-05-20T10:22:15.081Z,102169.94
2023-05-20T10:27:19.252Z,102169.19
2023-05-20T10:32:27.838Z,102172.47
2023-05-20T10:37:31.946Z,102167.84
2023-05-20T10:42:34.991Z,102159.34
2023-05-20T10:47:54.669Z,102157.91
2023-05-20T10:53:05.215Z,102149.63
2023-05-20T10:58:08.783Z,102155.19
2023-05-20T11:03:14.932Z,102145.97
2023-05-20T11:08:28.694Z,102139.59
2023-05-20T11:13:32.531Z,102141.88
2023-05-20T11:18:36.650Z,102143.94
2023-05-20T11:23:40.691Z,102131.38
2023-05-20T11:28:43.863Z,102123.63
2023-05-20T11:33:48.553Z,102124.84
2023-05-20T11:38:52.865Z,102122.75
2023-05-20T11:43:59.423Z,102116.06
2023-05-20T11:49:03.897Z,102119.31
2023-05-20T11:54:08.607Z,102115.66
2023-05-20T11:59:11.515Z,102114.78
2023-05-20T12:04:16.339Z,102118.91
2023-05-20T12:09:20.016Z,102117.84
2023-05-20T12:14:22.778Z,102115.72
2023-05-20T12:19:26.965Z,102108.75
2023-05-20T12:24:29.839Z,102103.94
2023-05-20T12:29:32.629Z,102105.75
2023-05-20T12:34:37.026Z,102098.28
2023-05-20T12:39:39.834Z,102099.22
2023-05-20T12:44:42.621Z,102090.00
2023-05-20T12:49:46.730Z,102090.19
2023-05-20T12:54:49.652Z,102090.00
2023-05-20T12:59:52.606Z,102078.13
2023-05-20T13:04:56.774Z,102079.09
2023-05-20T13:09:59.697Z,102077.31
2023-05-20T13:15:03.911Z,102062.81
2023-05-20T13:20:10.937Z,102059.88
2023-05-20T13:25:13.786Z,102053.78
2023-05-20T13:30:16.620Z,102054.63
2023-05-20T13:35:20.922Z,102047.06
2023-05-20T13:40:23.817Z,102043.00
2023-05-20T13:45:26.875Z,102018.97
2023-05-20T13:50:30.955Z,102021.06
2023-05-20T13:55:33.844Z,102031.09
2023-05-20T14:00:37.252Z,102020.59
2023-05-20T14:05:41.550Z,102008.53
2023-05-20T14:10:44.296Z,102005.81
2023-05-20T14:15:47.077Z,101999.91
2023-05-20T14:20:51.361Z,102005.75
2023-05-20T14:25:54.278Z,102000.69
2023-05-20T14:30:57.125Z,101996.94
2023-05-20T14:36:01.308Z,101989.09
2023-05-20T14:41:04.339Z,101976.91
2023-05-20T14:46:07.658Z,101961.25
2023-05-20T14:51:11.825Z,101961.69
2023-05-20T14:56:14.927Z,101961.63
2023-05-20T15:01:18.041Z,101953.50
2023-05-20T15:06:22.242Z,101954.72
2023-05-20T15:11:25.390Z,101948.00
2023-05-20T15:16:28.222Z,101943.22
2023-05-20T15:21:32.448Z,101948.63
2023-05-20T15:26:35.433Z,101948.09
2023-05-20T15:31:38.274Z,101936.66
2023-05-20T15:36:42.620Z,101936.34
2023-05-20T15:41:47.976Z,101927.69
2023-05-20T15:46:50.908Z,101913.84
2023-05-20T15:52:02.885Z,101915.69
2023-05-20T15:57:06.828Z,101923.00
2023-05-20T16:02:10.742Z,101915.38
2023-05-20T16:07:15.133Z,101904.31
2023-05-20T16:12:18.385Z,101918.34
2023-05-20T16:17:21.768Z,101912.72
2023-05-20T16:22:26.147Z,101914.22
2023-05-20T16:27:29.127Z,101903.53
2023-05-20T16:32:32.120Z,101899.81
2023-05-20T16:37:36.520Z,101879.94
2023-05-20T16:42:39.928Z,101891.94
2023-05-20T16:47:42.840Z,101892.34
2023-05-20T16:52:46.985Z,101888.56
2023-05-20T16:57:50.539Z,101888.13
2023-05-20T17:02:53.350Z,101887.91
2023-05-20T17:08:00.062Z,101891.75
2023-05-20T17:13:03.988Z,101882.03
2023-05-20T17:18:06.962Z,101889.41
2023-05-20T17:23:11.471Z,101886.66
2023-05-20T17:28:14.391Z,101887.47
2023-05-20T17:33:17.616Z,101883.31
2023-05-20T17:38:26.120Z,101882.75
2023-05-20T17:43:29.082Z,101878.31
2023-05-20T17:48:32.941Z,101874.78
2023-05-20T17:53:37.229Z,101877.00
2023-05-20T17:58:40.521Z,101879.03
2023-05-20T18:03:43.539Z,101875.88
2023-05-20T18:08:47.824Z,101869.31
2023-05-20T18:13:50.990Z,101861.84
2023-05-20T18:18:53.991Z,101861.84
2023-05-20T18:23:58.284Z,101859.81
2023-05-20T18:29:01.457Z,101860.94
2023-05-20T18:34:04.458Z,101858.59
2023-05-20T18:39:08.844Z,101870.56
2023-05-20T18:44:11.691Z,101863.22
2023-05-20T18:49:14.687Z,101871.41
2023-05-20T18:54:18.993Z,101878.56
2023-05-20T18:59:23.904Z,101881.69
2023-05-20T19:04:27.968Z,101875.53
2023-05-20T19:09:32.990Z,101878.09
2023-05-20T19:14:36.202Z,101879.78
2023-05-20T19:19:39.176Z,101877.44
2023-05-20T19:24:43.513Z,101887.47
2023-05-20T19:29:46.457Z,101881.88
2023-05-20T19:34:49.276Z,101892.97
2023-05-20T19:39:53.473Z,101894.16
2023-05-20T19:44:57.318Z,101891.38
2023-05-20T19:50:00.203Z,101901.72
2023-05-20T19:55:04.850Z,101910.88
2023-05-20T20:00:11.282Z,101893.97
2023-05-20T20:05:17.264Z,101896.66
2023-05-20T20:10:21.523Z,101891.34
2023-05-20T20:15:25.083Z,101891.47
2023-05-20T20:20:27.971Z,101888.03
2023-05-20T20:25:34.101Z,101889.22
2023-05-20T20:30:37.517Z,101894.25
2023-05-20T20:35:40.377Z,101889.56
2023-05-20T20:40:44.934Z,101890.53
2023-05-20T20:45:47.882Z,101892.09
2023-05-20T20:50:50.939Z,101890.34
2023-05-20T20:55:56.976Z,101889.84
2023-05-20T21:00:59.829Z,101882.72
2023-05-20T21:06:02.770Z,101883.09
2023-05-20T21:11:07.132Z,101877.41
2023-05-20T21:16:10.239Z,101872.69
2023-05-20T21:21:14.845Z,101873.69
2023-05-20T21:26:21.188Z,101868.06
2023-05-20T21:31:23.986Z,101872.59
2023-05-20T21:36:26.921Z,101870.25
2023-05-20T21:41:31.055Z,101856.91
2023-05-20T21:46:33.932Z,101850.13
2023-05-20T21:51:36.948Z,101853.00
2023-05-20T21:56:41.096Z,101843.16
2023-05-20T22:01:43.959Z,101839.97
2023-05-20T22:06:46.811Z,101834.38
2023-05-20T22:11:51.096Z,101830.88
2023-05-20T22:16:53.939Z,101839.59
2023-05-20T22:21:57.134Z,101834.25
2023-05-20T22:27:01.633Z,101825.25
2023-05-20T22:32:04.957Z,101833.47
2023-05-20T22:37:09.229Z,101822.09
2023-05-20T22:42:13.405Z,101815.19
2023-05-20T22:47:16.282Z,101808.34
2023-05-20T22:52:21.247Z,101804.84
2023-05-20T22:57:25.891Z,101797.53
2023-05-20T23:02:30.411Z,101789.53
2023-05-20T23:07:33.307Z,101786.19
2023-05-20T23:12:37.623Z,101786.50
2023-05-20T23:17:40.502Z,101787.22
2023-05-20T23:22:43.384Z,101788.00
2023-05-20T23:27:47.538Z,101773.47
2023-05-20T23:32:51.266Z,101762.03
2023-05-20T23:37:54.160Z,101761.72
2023-05-20T23:42:58.365Z,101763.75
2023-05-20T23:48:03.401Z,101753.19
2023-05-20T23:53:06.230Z,101745.59
2023-05-20T23:58:10.679Z,101742.69
